createdAt,value
2023-05-02T04:06:10.416Z,4.94
2023-05-02T04:20:47.644Z,5.27
2023-05-02T04:23:18.085Z,5.35
2023-05-02T04:25:56.781Z,5.44
2023-05-02T04:28:33.868Z,5.56
2023-05-02T04:31:01.982Z,5.66
2023-05-02T04:33:29.299Z,5.80
2023-05-02T04:35:57.064Z,5.94
2023-05-02T04:38:24.826Z,6.08
2023-05-02T04:40:52.712Z,6.22
2023-05-02T04:43:24.962Z,6.35
2023-05-02T04:45:59.121Z,6.48
2023-05-02T04:48:34.210Z,6.60
2023-05-02T04:51:01.562Z,6.73
2023-05-02T04:53:30.251Z,6.87
2023-05-02T04:55:57.905Z,6.98
2023-05-02T04:58:26.084Z,7.11
2023-05-02T05:01:02.273Z,7.25
2023-05-02T05:03:31.043Z,7.40
2023-05-02T05:05:58.952Z,7.57
2023-05-02T05:08:26.912Z,7.76
2023-05-02T05:10:54.237Z,7.96
2023-05-02T05:13:24.925Z,8.15
2023-05-02T05:15:52.786Z,8.35
2023-05-02T05:18:23.752Z,8.57
2023-05-02T05:20:51.287Z,8.78
2023-05-02T05:23:18.497Z,8.99
2023-05-02T05:25:45.885Z,9.22
2023-05-02T05:28:15.768Z,9.45
2023-05-02T05:30:42.845Z,9.67
2023-05-02T05:33:12.592Z,9.89
2023-05-02T05:35:59.832Z,10.12
2023-05-02T05:38:26.979Z,10.35
2023-05-02T05:40:57.466Z,10.57
2023-05-02T05:43:26.615Z,10.79
2023-05-02T05:45:54.577Z,11.01
2023-05-02T05:48:22.052Z,11.20
2023-05-02T05:50:49.472Z,11.39
2023-05-02T05:53:38.052Z,11.57
2023-05-02T05:56:11.638Z,11.74
2023-05-02T05:58:41.370Z,11.85
2023-05-02T06:01:10.143Z,11.92
2023-05-02T06:03:37.446Z,12.01
2023-05-02T06:06:07.954Z,12.15
2023-05-02T06:09:15.191Z,12.34
2023-05-02T06:12:06.057Z,12.49
2023-05-02T06:14:34.340Z,12.61
2023-05-02T06:17:01.803Z,12.71
2023-05-02T06:19:28.978Z,12.83
2023-05-02T06:21:56.136Z,12.96
2023-05-02T06:24:23.218Z,13.04
2023-05-02T06:26:51.799Z,13.12
2023-05-02T06:29:19.023Z,13.20
2023-05-02T06:31:46.380Z,13.27
2023-05-02T06:34:23.277Z,13.37
2023-05-02T06:36:55.821Z,13.49
2023-05-02T06:39:22.814Z,13.60
2023-05-02T06:41:49.813Z,13.71
2023-05-02T07:07:41.016Z,14.99
2023-05-02T07:10:28.649Z,15.26
2023-05-02T07:12:55.991Z,15.38
2023-05-02T07:15:22.950Z,15.47
2023-05-02T07:17:50.501Z,15.60
2023-05-02T07:20:20.674Z,15.67
2023-05-02T07:22:47.657Z,15.66
2023-05-02T07:25:14.751Z,15.66
2023-05-02T07:27:42.422Z,15.70
2023-05-02T07:30:17.958Z,15.76
2023-05-02T07:32:46.632Z,15.83
2023-05-02T07:35:13.843Z,15.89
2023-05-02T07:37:44.035Z,15.96
2023-05-02T07:40:15.599Z,16.02
2023-05-02T07:42:42.843Z,16.07
2023-05-02T07:45:12.413Z,16.02
2023-05-02T07:47:42.545Z,15.98
2023-05-02T07:50:10.310Z,16.03
2023-05-02T07:52:37.287Z,16.15
2023-05-02T07:55:10.044Z,16.25
2023-05-02T07:57:37.826Z,16.34
2023-05-02T08:00:10.161Z,16.40
2023-05-02T08:03:03.753Z,16.48
2023-05-02T08:05:31.019Z,16.58
2023-05-02T08:07:58.219Z,16.63
2023-05-02T08:10:25.773Z,16.66
2023-05-02T08:12:53.417Z,16.73
2023-05-02T08:15:21.206Z,16.83
2023-05-02T08:17:48.554Z,16.95
2023-05-02T08:20:15.935Z,17.15
2023-05-02T08:22:43.006Z,17.26
2023-05-02T08:25:10.107Z,17.24
2023-05-02T08:27:37.252Z,17.23
2023-05-02T08:30:08.138Z,17.31
2023-05-02T08:32:37.303Z,17.43
2023-05-02T08:35:07.552Z,17.54
2023-05-02T08:37:36.575Z,17.56
2023-05-02T08:40:11.655Z,17.58
2023-05-02T08:42:39.464Z,17.63
2023-05-02T08:45:07.084Z,17.66
2023-05-02T08:47:34.152Z,17.74
2023-05-02T08:50:23.550Z,17.79
2023-05-02T08:52:53.691Z,17.83
2023-05-02T08:55:27.945Z,17.85
2023-05-02T08:57:58.018Z,17.89
2023-05-02T09:00:28.531Z,17.96
2023-05-02T09:03:07.053Z,18.00
2023-05-02T09:05:45.478Z,18.02
2023-05-02T09:08:14.470Z,18.02
2023-05-02T09:10:43.180Z,18.06
2023-05-02T09:13:34.907Z,18.13
2023-05-02T09:16:06.228Z,18.27
2023-05-02T09:18:35.728Z,18.26
2023-05-02T09:21:19.763Z,18.23
2023-05-02T09:23:49.842Z,18.19
2023-05-02T09:26:24.991Z,18.20
2023-05-02T09:28:55.400Z,18.23
2023-05-02T09:33:57.030Z,18.47
2023-05-02T09:36:25.304Z,18.59
2023-05-02T09:38:53.166Z,18.58
2023-05-02T09:41:22.208Z,18.53
2023-05-02T09:44:00.343Z,18.52
2023-05-02T09:46:49.241Z,18.50
2023-05-02T09:49:19.610Z,18.52
2023-05-02T09:51:49.074Z,18.55
2023-05-02T09:54:40.460Z,18.63
2023-05-02T09:57:08.939Z,18.70
2023-05-02T09:59:36.944Z,18.76
2023-05-02T10:02:30.570Z,18.82
2023-05-02T10:05:20.277Z,18.94
2023-05-02T10:07:47.490Z,19.02
2023-05-02T10:10:17.934Z,19.07
2023-05-02T10:13:12.244Z,19.11
2023-05-02T10:15:44.591Z,19.20
2023-05-02T10:18:21.001Z,19.20
2023-05-02T10:21:00.010Z,19.19
2023-05-02T10:23:28.508Z,19.19
2023-05-02T10:26:15.932Z,19.24
2023-05-02T10:28:43.735Z,19.34
2023-05-02T10:31:14.030Z,19.38
2023-05-02T10:33:42.435Z,19.42
2023-05-02T10:36:10.835Z,19.49
2023-05-02T10:38:37.944Z,19.56
2023-05-02T10:41:26.524Z,19.67
2023-05-02T10:43:58.490Z,19.79
2023-05-02T10:46:42.310Z,19.92
2023-05-02T10:50:06.038Z,20.06
2023-05-02T10:52:45.563Z,20.20
2023-05-02T10:55:24.215Z,20.26
2023-05-02T10:58:00.593Z,20.21
2023-05-02T11:00:52.979Z,20.23
2023-05-02T11:03:59.036Z,20.27
2023-05-02T11:06:28.017Z,20.44
2023-05-02T11:09:28.099Z,20.46
2023-05-02T11:12:35.094Z,20.50
2023-05-02T11:15:03.284Z,20.59
2023-05-02T11:17:33.254Z,20.67
2023-05-02T11:20:07.593Z,20.68
2023-05-02T11:22:34.720Z,20.69
2023-05-02T11:25:03.744Z,20.69
2023-05-02T11:27:31.102Z,20.76
2023-05-02T11:30:06.756Z,20.83
2023-05-02T11:32:49.593Z,20.83
2023-05-02T11:35:20.732Z,20.78
2023-05-02T11:37:54.958Z,20.68
2023-05-02T11:40:22.177Z,20.60
2023-05-02T11:42:49.435Z,20.63
2023-05-02T11:45:18.966Z,20.67
2023-05-02T11:47:46.613Z,20.69
2023-05-02T11:50:33.796Z,20.74
2023-05-02T11:53:01.736Z,20.73
2023-05-02T12:00:20.391Z,20.58
2023-05-02T12:47:51.335Z,21.00
2023-05-02T12:59:36.388Z,20.96
2023-05-02T13:06:47.239Z,20.93
2023-05-02T13:31:32.563Z,20.96
2023-05-02T14:14:36.319Z,20.65
2023-05-02T14:39:35.323Z,20.37
2023-05-02T15:36:04.850Z,19.91
2023-05-02T16:05:42.017Z,19.21
2023-05-02T16:26:04.925Z,19.00
2023-05-02T17:36:17.240Z,17.31
2023-05-02T18:02:47.769Z,16.53
2023-05-02T18:05:15.238Z,16.43
2023-05-02T18:07:45.163Z,16.36
2023-05-02T18:10:13.328Z,16.29
2023-05-02T18:13:02.276Z,16.24
2023-05-02T18:15:32.315Z,16.17
2023-05-02T18:17:59.490Z,16.12
2023-05-02T18:20:26.569Z,16.07
2023-05-02T18:22:57.262Z,16.02
2023-05-02T18:25:24.151Z,15.95
2023-05-02T18:27:51.394Z,15.88
2023-05-02T18:30:19.412Z,15.82
2023-05-02T18:32:46.663Z,15.77
2023-05-02T18:35:13.690Z,15.72
2023-05-02T18:37:41.198Z,15.66
2023-05-02T18:40:08.797Z,15.61
2023-05-02T18:42:35.819Z,15.56
2023-05-02T18:45:05.559Z,15.54
2023-05-02T18:47:34.384Z,15.51
2023-05-02T18:50:04.573Z,15.47
2023-05-02T18:52:31.782Z,15.43
2023-05-02T18:54:59.463Z,15.39
